Maersk Danang — A8PS5 — position and weather

sailwx.info

Track history (hours):
 
Tides and Currents Weather Stations Pressure Air Temp Water Temp Dewpoint Dewpoint Depression Visibility Wind Speed Wind Dir Waves Ship Positions

Maersk Danang

Last reported at 2014-Aug-28 10:21 UTC. Time now 2014-Aug-31 08:37 UTC.
Position N 40°26' W 030°50'.

Length 294 m; draft 12.3 m.

Type: Ship (hazmat cat A). MMSI: 636091595.

Date/timePositionNaut miles runAvg speedWind from/ knotsBaromVisibWave heightAir tempDewpointWater temp
2014-Aug-28 10:21N 40°26' W 030°50'  
2014-Aug-25 21:22N 36°38' W 010°27'2915.9
2014-Aug-25 19:33N 36°27' W 009°53'1615.7
2014-Aug-25 18:33N 36°23' W 009°34'1615.5
2014-Aug-25 17:33N 36°20' W 009°16'1515.2
2014-Aug-25 16:33N 36°16' W 008°57'1515.2
2014-Aug-25 15:33N 36°13' W 008°39'1615.6
2014-Aug-25 14:33N 36°10' W 008°20'1615.8
2014-Aug-25 13:33N 36°06' W 008°01'1615.7
2014-Aug-25 12:33N 36°02' W 007°42'1615.7
2014-Aug-25 11:31N 35°60' W 007°22'1515.6
2014-Aug-25 10:33N 35°58' W 007°04'1616.1
2014-Aug-25 09:32N 35°58' W 006°44'336 9.0
2014-Aug-23 20:13N 36°43' E 000°10'1319.5
2014-Aug-23 19:32N 36°45' E 000°26'36920.0
2014-Aug-23 01:07N 37°39' E 008°04'1120.1
2014-Aug-23 00:33N 37°41' E 008°19'2020.3
2014-Aug-22 23:33N 37°44' E 008°44'2019.8
2014-Aug-22 22:33N 37°44' E 009°09'1919.2
2014-Aug-22 21:33N 37°42' E 009°33'2019.7
2014-Aug-22 20:33N 37°41' E 009°58'2019.8
2014-Aug-22 19:33N 37°38' E 010°23'2020.1
2014-Aug-22 18:34N 37°33' E 010°47'2020.4
2014-Aug-22 17:33N 37°28' E 011°12'2120.4
2014-Aug-22 16:33N 37°17' E 011°34'16020.1
2014-Aug-22 08:33N 36°23' E 014°43'2020.4
2014-Aug-22 07:34N 36°17' E 015°07'3020.3
2014-Aug-22 06:04N 36°08' E 015°43'1020.1
2014-Aug-22 05:34N 36°04' E 015°55'60920.3
2014-Aug-20 23:33N 32°59' E 027°38'4521.0
2014-Aug-20 21:26N 32°46' E 028°29'1921.2
2014-Aug-20 20:32N 32°40' E 028°51'255 5.5
2014-Aug-18 22:09N 29°51' E 032°34'  
Track history (hours):
 
Tides and Currents Weather Stations Pressure Air Temp Water Temp Dewpoint Dewpoint Depression Visibility Wind Speed Wind Dir Waves Ship Positions

Maersk Danang

Last reported at 2014-Aug-28 10:21 UTC. Time now 2014-Aug-31 08:37 UTC.
Position N 40°26' W 030°50'.

Length 294 m; draft 12.3 m.

Type: Ship (hazmat cat A). MMSI: 636091595.

Date/timePositionNaut miles runAvg speedWind from/ knotsBaromVisibWave heightAir tempDewpointWater temp
2014-Aug-28 10:21N 40°26' W 030°50'  
2014-Aug-25 21:22N 36°38' W 010°27'2915.9
2014-Aug-25 19:33N 36°27' W 009°53'1615.7
2014-Aug-25 18:33N 36°23' W 009°34'1615.5
2014-Aug-25 17:33N 36°20' W 009°16'1515.2
2014-Aug-25 16:33N 36°16' W 008°57'1515.2
2014-Aug-25 15:33N 36°13' W 008°39'1615.6
2014-Aug-25 14:33N 36°10' W 008°20'1615.8
2014-Aug-25 13:33N 36°06' W 008°01'1615.7
2014-Aug-25 12:33N 36°02' W 007°42'1615.7
2014-Aug-25 11:31N 35°60' W 007°22'1515.6
2014-Aug-25 10:33N 35°58' W 007°04'1616.1
2014-Aug-25 09:32N 35°58' W 006°44'336 9.0
2014-Aug-23 20:13N 36°43' E 000°10'1319.5
2014-Aug-23 19:32N 36°45' E 000°26'36920.0
2014-Aug-23 01:07N 37°39' E 008°04'1120.1
2014-Aug-23 00:33N 37°41' E 008°19'2020.3
2014-Aug-22 23:33N 37°44' E 008°44'2019.8
2014-Aug-22 22:33N 37°44' E 009°09'1919.2
2014-Aug-22 21:33N 37°42' E 009°33'2019.7
2014-Aug-22 20:33N 37°41' E 009°58'2019.8
2014-Aug-22 19:33N 37°38' E 010°23'2020.1
2014-Aug-22 18:34N 37°33' E 010°47'2020.4
2014-Aug-22 17:33N 37°28' E 011°12'2120.4
2014-Aug-22 16:33N 37°17' E 011°34'16020.1
2014-Aug-22 08:33N 36°23' E 014°43'2020.4
2014-Aug-22 07:34N 36°17' E 015°07'3020.3
2014-Aug-22 06:04N 36°08' E 015°43'1020.1
2014-Aug-22 05:34N 36°04' E 015°55'60920.3
2014-Aug-20 23:33N 32°59' E 027°38'4521.0
2014-Aug-20 21:26N 32°46' E 028°29'1921.2
2014-Aug-20 20:32N 32°40' E 028°51'255 5.5
2014-Aug-18 22:09N 29°51' E 032°34'  

Dump ship's entire track history